sensor_id;sensor_type;location;lat;lon;timestamp;temperature;humidity
4431;DHT22;2228;48.140;11.488;2023-08-06T13:11:26;17.30;1.00
4431;DHT22;2228;48.140;11.488;2023-08-06T13:13:53;17.30;1.00
4431;DHT22;2228;48.140;11.488;2023-08-06T13:16:20;17.30;1.00
4431;DHT22;2228;48.140;11.488;2023-08-06T13:18:47;17.20;1.00
4431;DHT22;2228;48.140;11.488;2023-08-06T13:21:14;16.80;91.60
4431;DHT22;2228;48.140;11.488;2023-08-06T13:23:41;16.20;99.90
4431;DHT22;2228;48.140;11.488;2023-08-06T13:26:08;15.60;99.90
4431;DHT22;2228;48.140;11.488;2023-08-06T13:28:37;15.10;99.90
4431;DHT22;2228;48.140;11.488;2023-08-06T13:31:03;14.90;99.90
4431;DHT22;2228;48.140;11.488;2023-08-06T13:33:30;14.60;99.90
4431;DHT22;2228;48.140;11.488;2023-08-06T13:35:57;14.70;99.90
4431;DHT22;2228;48.140;11.488;2023-08-06T13:38:24;14.90;99.90
4431;DHT22;2228;48.140;11.488;2023-08-06T13:40:51;15.30;99.90
4431;DHT22;2228;48.140;11.488;2023-08-06T13:43:18;15.50;99.90
4431;DHT22;2228;48.140;11.488;2023-08-06T13:45:47;15.50;99.90
4431;DHT22;2228;48.140;11.488;2023-08-06T13:48:14;16.30;99.90
4431;DHT22;2228;48.140;11.488;2023-08-06T13:50:41;15.90;99.90
4431;DHT22;2228;48.140;11.488;2023-08-06T13:53:08;15.30;99.90
4431;DHT22;2228;48.140;11.488;2023-08-06T13:55:35;15.30;99.90
4431;DHT22;2228;48.140;11.488;2023-08-06T13:58:02;14.90;99.90
4431;DHT22;2228;48.140;11.488;2023-08-06T14:00:29;15.60;99.90
4431;DHT22;2228;48.140;11.488;2023-08-06T14:02:57;15.70;99.90
4431;DHT22;2228;48.140;11.488;2023-08-06T14:05:24;14.50;1.00
4431;DHT22;2228;48.140;11.488;2023-08-06T14:07:51;14.90;1.00
4431;DHT22;2228;48.140;11.488;2023-08-06T14:10:18;14.40;1.00
4431;DHT22;2228;48.140;11.488;2023-08-06T14:12:45;14.50;1.00
4431;DHT22;2228;48.140;11.488;2023-08-06T14:15:13;14.50;1.00
4431;DHT22;2228;48.140;11.488;2023-08-06T14:17:40;14.40;1.00
4431;DHT22;2228;48.140;11.488;2023-08-06T14:20:09;15.20;1.00
4431;DHT22;2228;48.140;11.488;2023-08-06T14:22:37;14.30;1.00
4431;DHT22;2228;48.140;11.488;2023-08-06T14:25:05;14.70;1.00
4431;DHT22;2228;48.140;11.488;2023-08-06T14:27:32;14.20;1.00
4431;DHT22;2228;48.140;11.488;2023-08-06T14:29:59;14.50;1.00
4431;DHT22;2228;48.140;11.488;2023-08-06T14:32:28;14.00;1.00
4431;DHT22;2228;48.140;11.488;2023-08-06T14:34:55;13.80;1.00
4431;DHT22;2228;48.140;11.488;2023-08-06T14:37:24;13.80;1.00
4431;DHT22;2228;48.140;11.488;2023-08-06T14:39:52;13.80;89.50
4431;DHT22;2228;48.140;11.488;2023-08-06T14:42:19;13.80;1.00
4431;DHT22;2228;48.140;11.488;2023-08-06T14:44:46;13.80;13.90
4431;DHT22;2228;48.140;11.488;2023-08-06T14:47:13;14.30;1.00
4431;DHT22;2228;48.140;11.488;2023-08-06T14:49:40;13.80;1.00
4431;DHT22;2228;48.140;11.488;2023-08-06T14:52:07;13.90;1.00
4431;DHT22;2228;48.140;11.488;2023-08-06T14:54:36;14.00;1.00
4431;DHT22;2228;48.140;11.488;2023-08-06T14:57:05;14.40;1.00
4431;DHT22;2228;48.140;11.488;2023-08-06T14:59:43;13.70;61.30
4431;DHT22;2228;48.140;11.488;2023-08-06T15:02:12;13.60;1.00
4431;DHT22;2228;48.140;11.488;2023-08-06T15:04:40;14.80;73.20
4431;DHT22;2228;48.140;11.488;2023-08-06T15:07:12;13.60;1.00
4431;DHT22;2228;48.140;11.488;2023-08-06T15:09:44;13.70;79.70
4431;DHT22;2228;48.140;11.488;2023-08-06T15:12:11;13.70;91.60
4431;DHT22;2228;48.140;11.488;2023-08-06T15:14:38;12.80;15.60
4431;DHT22;2228;48.140;11.488;2023-08-06T15:17:05;15.00;1.00
4431;DHT22;2228;48.140;11.488;2023-08-06T15:19:32;14.10;1.00
4431;DHT22;2228;48.140;11.488;2023-08-06T15:21:59;15.20;1.00
4431;DHT22;2228;48.140;11.488;2023-08-06T15:24:27;14.70;1.00
4431;DHT22;2228;48.140;11.488;2023-08-06T15:26:55;14.00;1.00
4431;DHT22;2228;48.140;11.488;2023-08-06T15:29:22;14.50;1.00
4431;DHT22;2228;48.140;11.488;2023-08-06T15:31:51;13.70;1.00
4431;DHT22;2228;48.140;11.488;2023-08-06T15:34:18;14.00;1.00
4431;DHT22;2228;48.140;11.488;2023-08-06T15:36:46;13.70;1.00
4431;DHT22;2228;48.140;11.488;2023-08-06T15:39:16;14.60;36.10
4431;DHT22;2228;48.140;11.488;2023-08-06T15:41:44;14.70;99.90
4431;DHT22;2228;48.140;11.488;2023-08-06T15:44:24;13.40;63.00
4431;DHT22;2228;48.140;11.488;2023-08-06T15:46:54;13.30;99.90
4431;DHT22;2228;48.140;11.488;2023-08-06T15:49:24;13.30;99.90
4431;DHT22;2228;48.140;11.488;2023-08-06T15:51:51;14.40;45.20
4431;DHT22;2228;48.140;11.488;2023-08-06T15:54:40;14.10;99.90
4431;DHT22;2228;48.140;11.488;2023-08-06T15:57:36;13.10;99.90
4431;DHT22;2228;48.140;11.488;2023-08-06T16:00:07;12.90;99.90
4431;DHT22;2228;48.140;11.488;2023-08-06T16:02:34;13.20;99.90
4431;DHT22;2228;48.140;11.488;2023-08-06T16:05:01;13.40;99.90
4431;DHT22;2228;48.140;11.488;2023-08-06T16:07:28;13.40;99.90
4431;DHT22;2228;48.140;11.488;2023-08-06T16:09:55;13.50;71.90
4431;DHT22;2228;48.140;11.488;2023-08-06T16:12:22;12.30;1.00
4431;DHT22;2228;48.140;11.488;2023-08-06T16:14:50;13.40;55.50
4431;DHT22;2228;48.140;11.488;2023-08-06T16:17:20;13.40;35.20
4431;DHT22;2228;48.140;11.488;2023-08-06T16:19:47;13.90;1.00
4431;DHT22;2228;48.140;11.488;2023-08-06T16:22:18;12.10;1.00
4431;DHT22;2228;48.140;11.488;2023-08-06T16:24:45;13.20;1.00
4431;DHT22;2228;48.140;11.488;2023-08-06T16:27:14;13.10;1.00
4431;DHT22;2228;48.140;11.488;2023-08-06T16:29:41;13.00;1.00
4431;DHT22;2228;48.140;11.488;2023-08-06T16:32:08;13.10;1.00
4431;DHT22;2228;48.140;11.488;2023-08-06T16:34:37;13.30;1.00
4431;DHT22;2228;48.140;11.488;2023-08-06T16:37:04;14.00;1.00
4431;DHT22;2228;48.140;11.488;2023-08-06T16:39:32;12.90;1.00
4431;DHT22;2228;48.140;11.488;2023-08-06T16:42:00;12.90;1.00
4431;DHT22;2228;48.140;11.488;2023-08-06T16:44:29;12.90;1.00
4431;DHT22;2228;48.140;11.488;2023-08-06T16:47:00;12.90;1.00
4431;DHT22;2228;48.140;11.488;2023-08-06T16:49:31;12.90;47.60
4431;DHT22;2228;48.140;11.488;2023-08-06T16:52:01;13.00;96.60
4431;DHT22;2228;48.140;11.488;2023-08-06T16:54:44;13.10;1.00
4431;DHT22;2228;48.140;11.488;2023-08-06T16:57:43;13.40;1.00
4431;DHT22;2228;48.140;11.488;2023-08-06T17:01:06;11.70;81.50
4431;DHT22;2228;48.140;11.488;2023-08-06T17:03:35;12.90;28.70
4431;DHT22;2228;48.140;11.488;2023-08-06T17:06:04;13.00;1.00
4431;DHT22;2228;48.140;11.488;2023-08-06T17:08:32;13.10;1.00
4431;DHT22;2228;48.140;11.488;2023-08-06T17:11:00;14.10;1.00
4431;DHT22;2228;48.140;11.488;2023-08-06T17:13:34;13.00;28.60
4431;DHT22;2228;48.140;11.488;2023-08-06T17:16:03;13.10;1.00
4431;DHT22;2228;48.140;11.488;2023-08-06T17:18:39;12.20;1.00
4431;DHT22;2228;48.140;11.488;2023-08-06T17:21:08;14.30;1.00
4431;DHT22;2228;48.140;11.488;2023-08-06T17:27:03;13.00;1.00
4431;DHT22;2228;48.140;11.488;2023-08-06T17:29:46;12.90;40.70
4431;DHT22;2228;48.140;11.488;2023-08-06T17:32:13;12.00;19.60
4431;DHT22;2228;48.140;11.488;2023-08-06T17:34:40;13.80;1.00
4431;DHT22;2228;48.140;11.488;2023-08-06T17:37:09;14.10;1.00
4431;DHT22;2228;48.140;11.488;2023-08-06T17:39:37;13.50;1.00
4431;DHT22;2228;48.140;11.488;2023-08-06T17:42:05;14.50;1.00
4431;DHT22;2228;48.140;11.488;2023-08-06T17:44:36;14.30;1.00
4431;DHT22;2228;48.140;11.488;2023-08-06T17:47:03;15.30;99.90
4431;DHT22;2228;48.140;11.488;2023-08-06T17:49:30;15.00;99.90
4431;DHT22;2228;48.140;11.488;2023-08-06T17:51:59;15.50;99.90
4431;DHT22;2228;48.140;11.488;2023-08-06T17:54:27;15.20;99.90
4431;DHT22;2228;48.140;11.488;2023-08-06T17:56:55;14.80;99.90
4431;DHT22;2228;48.140;11.488;2023-08-06T17:59:22;14.50;99.90
4431;DHT22;2228;48.140;11.488;2023-08-06T18:01:49;14.00;1.00
4431;DHT22;2228;48.140;11.488;2023-08-06T18:04:16;13.70;1.00
4431;DHT22;2228;48.140;11.488;2023-08-06T18:06:44;13.60;1.00
4431;DHT22;2228;48.140;11.488;2023-08-06T18:09:11;13.50;1.00
4431;DHT22;2228;48.140;11.488;2023-08-06T18:11:38;14.00;1.00
4431;DHT22;2228;48.140;11.488;2023-08-06T18:14:06;13.20;1.00
4431;DHT22;2228;48.140;11.488;2023-08-06T18:16:34;13.10;1.00
4431;DHT22;2228;48.140;11.488;2023-08-06T18:19:01;13.10;1.00
4431;DHT22;2228;48.140;11.488;2023-08-06T18:21:29;14.20;1.00
4431;DHT22;2228;48.140;11.488;2023-08-06T18:23:56;12.90;1.00
4431;DHT22;2228;48.140;11.488;2023-08-06T18:26:24;13.70;1.00
4431;DHT22;2228;48.140;11.488;2023-08-06T18:29:08;12.80;1.00
4431;DHT22;2228;48.140;11.488;2023-08-06T18:31:35;12.10;1.00
4431;DHT22;2228;48.140;11.488;2023-08-06T18:34:05;13.00;1.00
4431;DHT22;2228;48.140;11.488;2023-08-06T18:36:32;13.90;1.00
4431;DHT22;2228;48.140;11.488;2023-08-06T18:39:00;14.50;1.00
4431;DHT22;2228;48.140;11.488;2023-08-06T18:41:31;11.80;1.00
4431;DHT22;2228;48.140;11.488;2023-08-06T18:44:01;13.50;1.00
4431;DHT22;2228;48.140;11.488;2023-08-06T18:46:30;13.10;1.00
4431;DHT22;2228;48.140;11.488;2023-08-06T18:48:58;13.10;1.00
4431;DHT22;2228;48.140;11.488;2023-08-06T18:51:30;13.90;1.00
4431;DHT22;2228;48.140;11.488;2023-08-06T18:53:57;13.90;1.00
4431;DHT22;2228;48.140;11.488;2023-08-06T18:56:24;13.90;1.00
4431;DHT22;2228;48.140;11.488;2023-08-06T18:58:51;13.90;1.00
4431;DHT22;2228;48.140;11.488;2023-08-06T19:01:18;14.40;1.00
4431;DHT22;2228;48.140;11.488;2023-08-06T19:03:47;14.30;1.00
4431;DHT22;2228;48.140;11.488;2023-08-06T19:06:15;15.00;1.00
4431;DHT22;2228;48.140;11.488;2023-08-06T19:08:42;14.90;1.00
4431;DHT22;2228;48.140;11.488;2023-08-06T19:11:09;13.30;99.90
4431;DHT22;2228;48.140;11.488;2023-08-06T19:13:37;13.80;1.00
4431;DHT22;2228;48.140;11.488;2023-08-06T19:16:04;12.80;1.00
4431;DHT22;2228;48.140;11.488;2023-08-06T19:18:51;12.80;99.90
4431;DHT22;2228;48.140;11.488;2023-08-06T19:21:45;13.30;99.90
4431;DHT22;2228;48.140;11.488;2023-08-06T19:24:37;13.40;99.90
4431;DHT22;2228;48.140;11.488;2023-08-06T19:27:18;12.80;1.00
4431;DHT22;2228;48.140;11.488;2023-08-06T19:29:48;14.60;99.90
4431;DHT22;2228;48.140;11.488;2023-08-06T19:32:15;14.80;99.90
4431;DHT22;2228;48.140;11.488;2023-08-06T19:34:44;12.60;99.90
4431;DHT22;2228;48.140;11.488;2023-08-06T19:37:16;12.60;99.90
4431;DHT22;2228;48.140;11.488;2023-08-06T19:39:52;12.60;99.90
4431;DHT22;2228;48.140;11.488;2023-08-06T19:42:19;14.50;99.90
4431;DHT22;2228;48.140;11.488;2023-08-06T19:44:46;13.00;99.90
4431;DHT22;2228;48.140;11.488;2023-08-06T19:47:13;13.60;99.90
4431;DHT22;2228;48.140;11.488;2023-08-06T19:49:41;14.00;99.90
4431;DHT22;2228;48.140;11.488;2023-08-06T19:52:10;15.10;99.90
4431;DHT22;2228;48.140;11.488;2023-08-06T19:54:37;12.80;99.90
4431;DHT22;2228;48.140;11.488;2023-08-06T19:57:05;12.80;99.90
4431;DHT22;2228;48.140;11.488;2023-08-06T19:59:41;12.60;99.90
4431;DHT22;2228;48.140;11.488;2023-08-06T20:02:08;13.30;99.90
4431;DHT22;2228;48.140;11.488;2023-08-06T20:04:36;15.20;99.90
4431;DHT22;2228;48.140;11.488;2023-08-06T20:07:04;14.70;99.90
4431;DHT22;2228;48.140;11.488;2023-08-06T20:09:33;12.50;99.90
4431;DHT22;2228;48.140;11.488;2023-08-06T20:12:00;14.30;99.90
4431;DHT22;2228;48.140;11.488;2023-08-06T20:14:28;12.60;99.90
4431;DHT22;2228;48.140;11.488;2023-08-06T20:16:55;13.70;99.90
4431;DHT22;2228;48.140;11.488;2023-08-06T20:19:22;12.50;99.90
4431;DHT22;2228;48.140;11.488;2023-08-06T20:21:49;12.50;99.90
4431;DHT22;2228;48.140;11.488;2023-08-06T20:24:17;12.60;99.90
4431;DHT22;2228;48.140;11.488;2023-08-06T20:26:47;12.40;99.90
4431;DHT22;2228;48.140;11.488;2023-08-06T20:29:14;12.40;99.90
4431;DHT22;2228;48.140;11.488;2023-08-06T20:31:45;12.50;99.90
4431;DHT22;2228;48.140;11.488;2023-08-06T20:34:12;12.60;99.90
4431;DHT22;2228;48.140;11.488;2023-08-06T20:36:39;12.50;99.90
4431;DHT22;2228;48.140;11.488;2023-08-06T20:39:06;12.70;99.90
4431;DHT22;2228;48.140;11.488;2023-08-06T20:41:33;12.40;99.90
4431;DHT22;2228;48.140;11.488;2023-08-06T20:44:04;12.40;99.90
4431;DHT22;2228;48.140;11.488;2023-08-06T20:46:31;15.10;99.90
4431;DHT22;2228;48.140;11.488;2023-08-06T20:48:58;12.40;99.90
4431;DHT22;2228;48.140;11.488;2023-08-06T20:51:27;12.50;99.90
4431;DHT22;2228;48.140;11.488;2023-08-06T20:53:55;12.30;99.90
4431;DHT22;2228;48.140;11.488;2023-08-06T20:56:22;15.10;99.90
4431;DHT22;2228;48.140;11.488;2023-08-06T20:58:49;12.40;99.90
4431;DHT22;2228;48.140;11.488;2023-08-06T21:01:18;12.80;99.90
4431;DHT22;2228;48.140;11.488;2023-08-06T21:03:45;12.30;99.90
4431;DHT22;2228;48.140;11.488;2023-08-06T21:06:13;14.60;99.90
4431;DHT22;2228;48.140;11.488;2023-08-06T21:08:40;12.80;99.90
4431;DHT22;2228;48.140;11.488;2023-08-06T21:11:07;15.40;99.90
4431;DHT22;2228;48.140;11.488;2023-08-06T21:13:41;12.30;99.90
4431;DHT22;2228;48.140;11.488;2023-08-06T21:16:09;13.60;99.90
4431;DHT22;2228;48.140;11.488;2023-08-06T21:18:37;12.30;99.90
4431;DHT22;2228;48.140;11.488;2023-08-06T21:21:05;13.80;99.90
4431;DHT22;2228;48.140;11.488;2023-08-06T21:23:32;12.30;99.90
4431;DHT22;2228;48.140;11.488;2023-08-06T21:26:01;12.40;99.90
4431;DHT22;2228;48.140;11.488;2023-08-06T21:28:29;15.70;99.90
4431;DHT22;2228;48.140;11.488;2023-08-06T21:30:58;9.60;99.90
4431;DHT22;2228;48.140;11.488;2023-08-06T21:33:28;12.30;99.90
4431;DHT22;2228;48.140;11.488;2023-08-06T21:35:58;13.80;99.90
4431;DHT22;2228;48.140;11.488;2023-08-06T21:38:27;12.40;99.90
4431;DHT22;2228;48.140;11.488;2023-08-06T21:40:59;15.10;99.90
4431;DHT22;2228;48.140;11.488;2023-08-06T21:43:27;12.40;99.90
4431;DHT22;2228;48.140;11.488;2023-08-06T21:45:54;12.40;99.90
4431;DHT22;2228;48.140;11.488;2023-08-06T21:48:21;12.40;99.90
4431;DHT22;2228;48.140;11.488;2023-08-06T21:50:49;12.40;99.90
4431;DHT22;2228;48.140;11.488;2023-08-06T21:53:18;15.00;99.30
4431;DHT22;2228;48.140;11.488;2023-08-06T21:55:45;14.60;99.90
4431;DHT22;2228;48.140;11.488;2023-08-06T21:58:12;12.50;99.90
4431;DHT22;2228;48.140;11.488;2023-08-06T22:00:39;13.50;64.20
4431;DHT22;2228;48.140;11.488;2023-08-06T22:03:20;9.50;73.10
4431;DHT22;2228;48.140;11.488;2023-08-06T22:05:49;13.80;63.20
4431;DHT22;2228;48.140;11.488;2023-08-06T22:08:32;13.80;99.90
4431;DHT22;2228;48.140;11.488;2023-08-06T22:11:00;13.10;23.10
4431;DHT22;2228;48.140;11.488;2023-08-06T22:13:36;15.00;17.00
4431;DHT22;2228;48.140;11.488;2023-08-06T22:16:04;12.70;3.60
4431;DHT22;2228;48.140;11.488;2023-08-06T22:18:32;12.70;1.00
4431;DHT22;2228;48.140;11.488;2023-08-06T22:20:59;13.60;1.00
4431;DHT22;2228;48.140;11.488;2023-08-06T22:23:27;15.00;1.00
4431;DHT22;2228;48.140;11.488;2023-08-06T22:25:55;14.00;1.00
4431;DHT22;2228;48.140;11.488;2023-08-06T22:28:23;14.80;1.00
4431;DHT22;2228;48.140;11.488;2023-08-06T22:30:56;14.80;1.00
4431;DHT22;2228;48.140;11.488;2023-08-06T22:33:47;15.30;1.00
4431;DHT22;2228;48.140;11.488;2023-08-06T22:36:15;15.80;1.00
4431;DHT22;2228;48.140;11.488;2023-08-06T22:38:43;11.80;1.00
4431;DHT22;2228;48.140;11.488;2023-08-06T22:41:11;10.00;1.00
4431;DHT22;2228;48.140;11.488;2023-08-06T22:43:39;15.40;1.00
4431;DHT22;2228;48.140;11.488;2023-08-06T22:46:06;13.00;1.00
4431;DHT22;2228;48.140;11.488;2023-08-06T22:48:36;15.40;1.00
4431;DHT22;2228;48.140;11.488;2023-08-06T22:51:03;13.20;1.00
4431;DHT22;2228;48.140;11.488;2023-08-06T22:53:30;12.80;1.00
4431;DHT22;2228;48.140;11.488;2023-08-06T22:55:57;11.30;1.00
4431;DHT22;2228;48.140;11.488;2023-08-06T22:58:28;12.70;1.00
4431;DHT22;2228;48.140;11.488;2023-08-06T23:00:55;12.70;1.00
4431;DHT22;2228;48.140;11.488;2023-08-06T23:03:22;12.60;1.00
4431;DHT22;2228;48.140;11.488;2023-08-06T23:05:51;12.80;1.00
4431;DHT22;2228;48.140;11.488;2023-08-06T23:08:18;12.60;1.00
4431;DHT22;2228;48.140;11.488;2023-08-06T23:10:45;12.60;1.00
4431;DHT22;2228;48.140;11.488;2023-08-06T23:13:14;12.70;1.00
4431;DHT22;2228;48.140;11.488;2023-08-06T23:15:44;15.00;1.00
4431;DHT22;2228;48.140;11.488;2023-08-06T23:18:13;13.20;1.00
4431;DHT22;2228;48.140;11.488;2023-08-06T23:20:43;12.60;1.00
4431;DHT22;2228;48.140;11.488;2023-08-06T23:23:11;13.10;1.00
4431;DHT22;2228;48.140;11.488;2023-08-06T23:25:38;12.50;1.00
4431;DHT22;2228;48.140;11.488;2023-08-06T23:28:06;12.50;1.00
4431;DHT22;2228;48.140;11.488;2023-08-06T23:30:33;12.50;1.00
4431;DHT22;2228;48.140;11.488;2023-08-06T23:33:03;14.60;1.00
4431;DHT22;2228;48.140;11.488;2023-08-06T23:35:30;12.50;1.00
4431;DHT22;2228;48.140;11.488;2023-08-06T23:37:57;13.10;1.00
4431;DHT22;2228;48.140;11.488;2023-08-06T23:42:52;12.50;1.00
4431;DHT22;2228;48.140;11.488;2023-08-06T23:45:21;12.50;1.00
4431;DHT22;2228;48.140;11.488;2023-08-06T23:47:48;12.50;1.00
